Time;durP1;ratioP1;P1;durP2;ratioP2;P2;SDS_P1;SDS_P2;PMS_P1;PMS_P2;Temp;Humidity;BMP_temperature;BMP_pressure;BME280_temperature;BME280_humidity;BME280_pressure;Samples;Min_cycle;Max_cycle;Signal;HPM_P1;HPM_P2
2022/06/08 00:00:19;;;;;;;9.00;3.28;;;;;;;11.21;91.80;93777.34;5092482;28;20046;-60
2022/06/08 00:02:49;;;;;;;11.23;3.17;;;;;;;11.24;91.61;93770.97;5091658;28;20050;-59
2022/06/08 00:05:17;;;;;;;10.75;3.25;;;;;;;11.27;91.40;93775.66;5090975;28;20054;-64
2022/06/08 00:07:44;;;;;;;15.50;3.40;;;;;;;11.16;91.49;93780.56;5107473;28;20054;-61
2022/06/08 00:10:11;;;;;;;17.17;3.20;;;;;;;11.14;91.82;93774.72;5092166;28;20036;-58
2022/06/08 00:12:38;;;;;;;8.05;3.30;;;;;;;11.20;91.54;93773.78;5091228;28;20040;-60
2022/06/08 00:15:08;;;;;;;9.32;3.40;;;;;;;11.23;91.21;93771.41;5068012;28;20071;-61
2022/06/08 00:17:36;;;;;;;9.32;3.30;;;;;;;11.17;90.80;93773.88;5041334;28;20057;-61
2022/06/08 00:20:08;;;;;;;7.33;3.27;;;;;;;11.17;90.51;93771.91;5076522;28;20872;-60
2022/06/08 00:22:35;;;;;;;7.72;3.10;;;;;;;11.17;90.30;93760.16;5079811;28;20052;-60
2022/06/08 00:25:04;;;;;;;9.90;3.28;;;;;;;11.15;89.92;93760.56;5091123;28;20683;-58
2022/06/08 00:27:31;;;;;;;17.67;3.42;;;;;;;11.13;90.08;93762.19;5091862;28;20051;-59
2022/06/08 00:29:59;;;;;;;28.02;3.28;;;;;;;11.15;89.81;93768.81;5091275;28;20040;-59
2022/06/08 00:32:26;;;;;;;47.40;3.53;;;;;;;10.90;90.01;93758.28;5091638;28;20071;-59
2022/06/08 00:34:52;;;;;;;15.57;3.45;;;;;;;10.82;90.65;93753.38;5081082;28;20399;-60
2022/06/08 00:37:19;;;;;;;26.83;4.50;;;;;;;10.84;91.11;93756.47;5052645;28;20051;-63
2022/06/08 00:39:46;;;;;;;23.00;4.18;;;;;;;10.80;91.61;93751.03;5065738;28;20045;-60
2022/06/08 00:42:14;;;;;;;21.27;3.58;;;;;;;10.85;90.80;93753.31;5071198;28;20059;-60
2022/06/08 00:44:49;;;;;;;25.87;3.20;;;;;;;10.78;90.51;93753.44;5070743;28;20051;-59
2022/06/08 00:47:21;;;;;;;5.88;2.83;;;;;;;10.73;90.79;93746.47;5053514;28;20379;-60
2022/06/08 00:49:52;;;;;;;19.33;3.55;;;;;;;10.81;90.97;93740.84;5070720;28;20040;-59
2022/06/08 00:52:20;;;;;;;13.50;3.10;;;;;;;10.81;90.91;93741.63;5071360;28;20482;-60
2022/06/08 00:54:51;;;;;;;14.10;3.40;;;;;;;10.84;90.69;93734.50;5070539;28;20054;-64
2022/06/08 00:57:26;;;;;;;9.90;3.27;;;;;;;10.61;91.49;93735.34;5071194;28;20044;-60
2022/06/08 00:59:59;;;;;;;8.40;3.20;;;;;;;10.60;91.29;93723.56;5070403;28;20059;-64
2022/06/08 01:02:27;;;;;;;16.25;3.55;;;;;;;10.50;91.08;93730.81;5070735;28;20045;-59
2022/06/08 01:05:20;;;;;;;8.40;2.80;;;;;;;10.55;90.24;93727.59;5070162;28;20045;-60
2022/06/08 01:07:51;;;;;;;4.90;2.70;;;;;;;10.48;89.91;93721.44;5074975;28;20044;-60
2022/06/08 01:10:22;;;;;;;11.80;2.57;;;;;;;10.48;89.25;93722.22;5070701;28;20048;-59
2022/06/08 01:12:49;;;;;;;46.63;4.45;;;;;;;10.44;90.41;93721.50;5070184;28;20589;-59
2022/06/08 01:15:22;;;;;;;13.40;5.75;;;;;;;10.52;90.21;93714.72;5070673;28;20053;-63
2022/06/08 01:17:49;;;;;;;13.32;3.60;;;;;;;10.56;90.20;93707.19;5070158;28;20117;-59
2022/06/08 01:20:16;;;;;;;87.22;4.28;;;;;;;10.41;90.50;93718.84;5070647;28;20494;-59
2022/06/08 01:22:43;;;;;;;63.83;3.97;;;;;;;10.37;90.99;93708.69;5069975;28;20052;-59
2022/06/08 01:25:12;;;;;;;17.98;3.20;;;;;;;10.27;91.36;93717.09;5070597;28;20109;-63
2022/06/08 01:27:53;;;;;;;46.15;3.33;;;;;;;10.10;91.62;93713.44;5069885;28;20048;-61
2022/06/08 01:30:29;;;;;;;17.63;3.30;;;;;;;10.05;93.03;93713.94;5070930;28;20044;-63
2022/06/08 01:32:56;;;;;;;13.98;2.90;;;;;;;9.87;92.61;93715.00;5069933;28;20041;-59
2022/06/08 01:35:26;;;;;;;9.83;2.70;;;;;;;9.90;92.18;93707.91;5062365;28;20045;-59
2022/06/08 01:38:15;;;;;;;6.68;2.80;;;;;;;9.99;91.71;93710.88;5050313;28;20045;-59
2022/06/08 01:41:08;;;;;;;63.42;3.90;;;;;;;10.05;91.63;93713.94;5068328;28;20113;-63
2022/06/08 01:43:44;;;;;;;59.05;4.15;;;;;;;10.03;92.52;93716.31;5070165;28;20060;-58
2022/06/08 01:46:19;;;;;;;110.93;7.13;;;;;;;9.99;93.55;93705.41;5069428;28;20066;-60
2022/06/08 01:48:59;;;;;;;18.23;6.07;;;;;;;10.16;92.89;93712.56;5069834;28;20045;-59
2022/06/08 01:51:38;;;;;;;29.33;4.20;;;;;;;10.14;92.92;93704.00;5070227;28;20044;-61
2022/06/08 01:54:26;;;;;;;47.38;4.70;;;;;;;9.83;94.60;93705.28;5089568;28;20091;-59
2022/06/08 01:57:00;;;;;;;39.35;4.47;;;;;;;9.84;95.44;93704.09;5070810;28;20040;-59
2022/06/08 01:59:58;;;;;;;38.78;4.50;;;;;;;9.91;94.87;93701.25;5070447;28;20043;-58
2022/06/08 02:02:31;;;;;;;9.70;4.03;;;;;;;9.95;94.63;93701.94;5084342;28;20293;-58
2022/06/08 02:05:04;;;;;;;52.38;4.65;;;;;;;9.92;94.63;93694.56;5070035;28;20037;-58
2022/06/08 02:08:00;;;;;;;120.82;5.82;;;;;;;9.89;94.76;93687.19;5055319;28;20051;-60
2022/06/08 02:10:37;;;;;;;56.38;4.55;;;;;;;9.91;94.69;93695.75;5056792;28;20627;-59
2022/06/08 02:13:53;;;;;;;77.88;4.63;;;;;;;9.59;94.99;93702.50;5069224;28;20049;-63
2022/06/08 02:16:34;;;;;;;78.40;4.90;;;;;;;9.54;96.19;93684.56;5067576;28;20328;-59
2022/06/08 02:19:13;;;;;;;57.90;4.60;;;;;;;9.53;96.50;93685.75;5069405;28;20522;-61
2022/06/08 02:21:52;;;;;;;51.30;5.07;;;;;;;9.63;96.61;93686.03;5069466;28;20055;-57
2022/06/08 02:24:27;;;;;;;54.05;4.70;;;;;;;9.56;95.99;93678.69;5069821;28;20045;-60
2022/06/08 02:27:02;;;;;;;20.70;4.20;;;;;;;9.63;96.32;93680.53;5069666;28;20041;-58
2022/06/08 02:29:37;;;;;;;9.07;3.50;;;;;;;9.76;95.81;93681.53;5069889;28;20620;-62
2022/06/08 02:34:28;;;;;;;6.15;3.13;;;;;;;9.78;93.92;93685.38;5069032;28;21743;-58
2022/06/08 02:35:04;;;;;;;18.15;4.43;;;;;;;9.79;94.17;93673.22;5066923;28;20047;-59
2022/06/08 02:37:34;;;;;;;19.95;3.97;;;;;;;9.87;93.47;93668.41;5055220;28;20067;-61
2022/06/08 02:40:21;;;;;;;45.30;4.35;;;;;;;9.84;93.42;93669.25;5066155;28;20040;-60
2022/06/08 02:42:53;;;;;;;85.33;4.67;;;;;;;9.90;93.28;93664.84;5057349;28;20072;-59
2022/06/08 02:45:31;;;;;;;25.20;3.88;;;;;;;9.62;94.51;93657.84;5069876;28;20413;-59
2022/06/08 02:48:03;;;;;;;26.48;4.25;;;;;;;9.60;94.57;93660.22;5069466;28;20048;-59
2022/06/08 02:50:31;;;;;;;36.03;4.00;;;;;;;9.43;94.35;93655.78;5069898;28;20045;-59
2022/06/08 02:53:16;;;;;;;17.40;3.85;;;;;;;9.39;95.24;93664.81;5070751;28;20047;-60
2022/06/08 02:56:11;;;;;;;14.47;3.43;;;;;;;9.52;94.79;93665.03;5073040;28;20418;-61
2022/06/08 02:58:51;;;;;;;31.65;3.55;;;;;;;9.57;93.82;93661.06;5054749;28;20045;-58
2022/06/08 03:01:37;;;;;;;6.93;3.10;;;;;;;9.53;93.09;93657.59;5073300;28;20556;-62
2022/06/08 03:04:14;;;;;;;33.50;3.92;;;;;;;9.65;93.57;93653.50;5070064;28;20423;-59
2022/06/08 03:06:48;;;;;;;14.02;3.42;;;;;;;9.73;92.92;93655.69;5090673;28;20463;-59
2022/06/08 03:09:16;;;;;;;6.10;3.17;;;;;;;9.78;92.50;93655.25;5073422;28;20056;-64
2022/06/08 03:11:50;;;;;;;8.95;3.10;;;;;;;9.73;92.29;93655.69;5072194;28;20257;-64
2022/06/08 03:14:17;;;;;;;19.88;3.70;;;;;;;9.75;92.57;93647.06;5073152;28;20066;-60
2022/06/08 03:16:54;;;;;;;38.20;4.22;;;;;;;9.76;92.60;93646.66;5072334;28;20055;-59
2022/06/08 03:19:21;;;;;;;16.23;4.03;;;;;;;9.55;92.69;93642.28;5072928;28;20048;-59
2022/06/08 03:21:48;;;;;;;24.23;3.70;;;;;;;9.45;93.44;93637.75;5072425;28;20036;-60
2022/06/08 03:24:15;;;;;;;9.30;3.97;;;;;;;9.49;94.16;93641.22;5072594;28;20100;-61
2022/06/08 03:26:48;;;;;;;12.45;3.80;;;;;;;9.58;94.01;93641.47;5072093;28;20041;-60
2022/06/08 03:29:15;;;;;;;22.00;4.05;;;;;;;9.68;93.22;93644.44;5072858;28;20047;-59
2022/06/08 03:31:42;;;;;;;69.70;4.57;;;;;;;9.60;93.21;93641.06;5072009;28;20143;-61
2022/06/08 03:34:10;;;;;;;250.83;9.17;;;;;;;9.45;94.70;93642.47;5072685;28;20647;-62
2022/06/08 03:36:37;;;;;;;58.35;4.80;;;;;;;9.39;94.89;93633.94;5054881;28;20096;-60
2022/06/08 03:39:05;;;;;;;44.45;4.82;;;;;;;9.34;96.16;93639.91;5068563;28;20828;-59
2022/06/08 03:41:32;;;;;;;29.23;4.50;;;;;;;9.36;96.26;93634.78;5080448;28;20610;-61
2022/06/08 03:43:59;;;;;;;34.85;5.13;;;;;;;9.42;96.36;93641.34;5080750;28;20044;-60
2022/06/08 03:46:28;;;;;;;38.17;4.80;;;;;;;9.55;95.83;93641.50;5072281;28;20422;-62
2022/06/08 03:48:56;;;;;;;14.10;4.10;;;;;;;9.49;94.80;93638.47;5072054;28;20436;-63
2022/06/08 03:51:23;;;;;;;28.67;4.43;;;;;;;9.10;94.45;93634.34;5072298;28;20414;-59
2022/06/08 03:53:55;;;;;;;9.93;3.97;;;;;;;9.14;95.22;93635.09;5071633;28;20406;-59
2022/06/08 03:56:25;;;;;;;16.58;4.00;;;;;;;9.42;94.95;93630.38;5071381;28;20043;-63
2022/06/08 03:58:52;;;;;;;13.90;3.80;;;;;;;9.56;94.74;93632.88;5071795;28;20040;-59
2022/06/08 04:01:19;;;;;;;74.97;5.00;;;;;;;9.65;94.30;93632.34;5072452;28;20063;-63
2022/06/08 04:03:50;;;;;;;34.08;4.60;;;;;;;9.38;94.21;93632.41;5070885;28;20052;-60
2022/06/08 04:06:19;;;;;;;38.88;4.20;;;;;;;9.09;95.20;93624.59;5071410;28;20052;-60
2022/06/08 04:08:46;;;;;;;18.83;4.10;;;;;;;9.05;95.95;93618.38;5071570;28;20495;-60
2022/06/08 04:11:12;;;;;;;14.00;4.13;;;;;;;8.98;96.08;93615.78;5071927;28;20044;-59
2022/06/08 04:13:40;;;;;;;33.03;4.28;;;;;;;8.88;95.57;93624.91;5053640;28;20500;-58
2022/06/08 04:16:07;;;;;;;8.90;3.83;;;;;;;8.89;96.73;93637.38;5054182;28;20044;-59
2022/06/08 04:18:35;;;;;;;14.40;4.40;;;;;;;8.95;97.37;93624.78;5071729;28;20499;-59
2022/06/08 04:21:06;;;;;;;26.88;4.18;;;;;;;8.98;96.62;93618.50;5071064;28;20044;-60
2022/06/08 04:23:33;;;;;;;20.87;4.37;;;;;;;8.95;96.19;93613.84;5071759;28;20400;-59
2022/06/08 04:26:01;;;;;;;27.27;5.28;;;;;;;9.15;96.08;93617.44;5071002;28;20047;-59
2022/06/08 04:28:28;;;;;;;22.95;4.72;;;;;;;9.31;95.60;93614.09;5071588;28;20534;-60
2022/06/08 04:30:56;;;;;;;28.70;4.22;;;;;;;9.49;94.32;93615.78;5071023;28;20048;-60
2022/06/08 04:33:22;;;;;;;10.40;4.03;;;;;;;9.74;94.07;93612.66;5071263;28;20047;-62
2022/06/08 04:35:51;;;;;;;16.50;3.83;;;;;;;9.94;91.59;93602.50;5053087;28;20520;-60
2022/06/08 04:38:19;;;;;;;7.10;3.40;;;;;;;10.20;90.84;93595.38;5071194;28;20044;-61
2022/06/08 04:40:47;;;;;;;6.85;3.40;;;;;;;10.00;90.30;93594.56;5052921;28;20048;-60
2022/06/08 04:43:14;;;;;;;8.38;3.20;;;;;;;9.95;89.96;93598.56;5071044;28;20048;-62
2022/06/08 04:45:42;;;;;;;7.05;3.42;;;;;;;10.29;89.06;93594.03;5070520;28;20041;-59
2022/06/08 04:48:09;;;;;;;15.73;3.70;;;;;;;10.43;87.80;93593.78;5071184;28;20410;-64
2022/06/08 04:50:37;;;;;;;13.70;3.25;;;;;;;10.41;88.23;93582.44;5071180;28;20040;-61
2022/06/08 04:53:03;;;;;;;6.95;3.65;;;;;;;10.62;87.29;93588.69;5086693;28;20765;-59
2022/06/08 04:55:30;;;;;;;10.75;3.35;;;;;;;10.81;86.35;93590.66;5070964;28;20064;-60
2022/06/08 04:57:57;;;;;;;8.65;3.60;;;;;;;10.72;86.64;93591.22;5070292;28;20062;-60
2022/06/08 05:00:25;;;;;;;44.80;4.40;;;;;;;10.57;87.35;93592.72;5070588;28;20045;-60
2022/06/08 05:02:53;;;;;;;12.07;3.35;;;;;;;10.54;87.37;93597.09;5070188;28;20589;-62
2022/06/08 05:05:35;;;;;;;75.65;5.07;;;;;;;10.08;88.60;93593.25;5070615;28;20452;-60
2022/06/08 05:08:04;;;;;;;16.25;4.30;;;;;;;10.13;89.70;93589.22;5043869;28;20097;-62
2022/06/08 05:10:34;;;;;;;39.70;4.35;;;;;;;10.41;89.25;93587.16;5090905;28;20455;-60
2022/06/08 05:13:03;;;;;;;16.43;4.30;;;;;;;11.01;87.58;93601.59;5090369;28;20038;-60
2022/06/08 05:15:33;;;;;;;13.43;3.95;;;;;;;11.29;86.17;93596.63;5090107;28;20505;-59
2022/06/08 05:18:01;;;;;;;10.88;4.07;;;;;;;11.24;84.57;93605.41;5072283;28;20043;-59
2022/06/08 05:20:28;;;;;;;12.93;4.18;;;;;;;10.77;87.01;93609.94;5090856;28;20048;-59
2022/06/08 05:22:57;;;;;;;24.98;4.75;;;;;;;11.26;85.32;93606.50;5077252;28;20050;-60
2022/06/08 05:25:30;;;;;;;41.33;4.50;;;;;;;11.39;84.83;93601.13;5070448;28;20037;-60
2022/06/08 05:27:57;;;;;;;12.48;4.00;;;;;;;12.16;82.39;93593.34;5070187;28;20056;-60
2022/06/08 05:30:25;;;;;;;7.30;4.00;;;;;;;12.92;79.82;93590.06;5070495;28;20047;-61
2022/06/08 05:32:53;;;;;;;7.63;4.15;;;;;;;13.74;74.59;93585.97;5069819;28;20045;-60
2022/06/08 05:35:21;;;;;;;6.82;4.07;;;;;;;13.99;74.76;93579.66;5070267;28;20402;-64
2022/06/08 05:37:48;;;;;;;18.90;3.90;;;;;;;13.65;73.32;93574.88;5069560;28;21304;-61
2022/06/08 05:40:15;;;;;;;8.70;3.50;;;;;;;13.71;73.18;93582.13;5052109;28;20050;-60
2022/06/08 05:42:42;;;;;;;11.15;4.32;;;;;;;14.23;72.00;93582.78;5069461;28;20047;-60
2022/06/08 05:45:16;;;;;;;12.15;4.10;;;;;;;14.25;71.02;93576.81;5070045;28;20036;-61
2022/06/08 05:47:43;;;;;;;9.35;3.85;;;;;;;13.32;73.87;93572.34;5069527;28;20048;-63
2022/06/08 05:50:16;;;;;;;9.70;4.27;;;;;;;12.56;77.59;93568.28;5070159;28;20109;-63
2022/06/08 05:52:46;;;;;;;7.85;3.83;;;;;;;13.76;74.54;93564.25;5069566;28;20048;-60
2022/06/08 05:55:14;;;;;;;8.95;4.38;;;;;;;14.70;71.36;93559.06;5069782;28;20052;-60
2022/06/08 05:57:41;;;;;;;8.10;4.10;;;;;;;15.51;67.00;93559.91;5069587;28;20402;-61
2022/06/08 06:00:12;;;;;;;6.25;3.70;;;;;;;15.45;67.78;93566.47;5069928;28;20494;-60
2022/06/08 06:02:38;;;;;;;7.03;3.80;;;;;;;17.98;61.96;93558.50;5069579;28;20052;-61
2022/06/08 06:05:06;;;;;;;6.15;3.72;;;;;;;18.03;58.47;93563.44;5051862;28;20063;-64
2022/06/08 06:07:33;;;;;;;6.50;3.95;;;;;;;18.32;57.74;93561.97;5069779;28;20056;-64
2022/06/08 06:10:03;;;;;;;5.43;3.95;;;;;;;20.03;53.16;93558.81;5069500;28;20041;-62
2022/06/08 06:12:30;;;;;;;6.00;3.60;;;;;;;21.00;50.43;93556.66;5069793;28;20479;-59
2022/06/08 06:15:05;;;;;;;5.67;3.40;;;;;;;22.65;45.78;93545.34;5080818;28;20804;-58
2022/06/08 06:17:32;;;;;;;6.82;3.63;;;;;;;23.48;44.90;93552.38;5074189;28;20054;-58
2022/06/08 06:19:58;;;;;;;6.15;3.70;;;;;;;24.69;41.74;93550.38;5069418;28;21681;-62
2022/06/08 06:22:25;;;;;;;6.10;4.10;;;;;;;25.21;40.58;93545.25;5068350;28;20053;-59
2022/06/08 06:24:52;;;;;;;7.60;3.92;;;;;;;26.15;38.75;93545.00;5050799;28;20063;-62
2022/06/08 06:27:21;;;;;;;6.73;3.97;;;;;;;26.72;37.63;93533.13;5057938;28;20052;-60
2022/06/08 06:29:48;;;;;;;6.15;3.90;;;;;;;24.68;40.44;93534.81;5073459;28;20044;-59
2022/06/08 06:32:26;;;;;;;6.93;4.13;;;;;;;25.89;39.25;93537.81;5073650;28;20060;-60
2022/06/08 06:34:54;;;;;;;4.55;3.22;;;;;;;27.00;37.25;93524.31;5073489;28;20071;-60
2022/06/08 06:37:22;;;;;;;6.22;3.60;;;;;;;28.28;35.42;93529.19;5073576;28;20044;-61
2022/06/08 06:39:49;;;;;;;4.97;3.30;;;;;;;29.73;32.68;93525.16;5073058;28;20405;-60
2022/06/08 06:42:21;;;;;;;6.50;3.50;;;;;;;28.93;33.16;93525.38;5073612;28;20491;-59
2022/06/08 06:44:48;;;;;;;5.43;3.35;;;;;;;30.04;32.34;93528.97;5073178;28;20075;-60
2022/06/08 06:47:15;;;;;;;6.50;3.40;;;;;;;28.90;32.84;93530.06;5073501;28;20117;-61
2022/06/08 06:49:41;;;;;;;6.80;3.10;;;;;;;27.89;34.92;93527.84;5072895;28;20032;-60
2022/06/08 06:52:10;;;;;;;4.83;2.80;;;;;;;27.58;35.81;93531.44;5055783;28;20059;-60
2022/06/08 06:54:37;;;;;;;4.45;2.70;;;;;;;27.42;35.60;93528.31;5073076;28;20044;-60
2022/06/08 06:57:04;;;;;;;5.00;2.60;;;;;;;27.10;36.83;93526.22;5050222;28;20040;-63
2022/06/08 06:59:31;;;;;;;4.68;2.60;;;;;;;26.04;38.26;93525.47;5093756;28;20046;-59
2022/06/08 07:01:58;;;;;;;4.43;2.42;;;;;;;27.06;36.54;93516.56;5075034;28;20052;-61
2022/06/08 07:04:25;;;;;;;3.70;2.10;;;;;;;25.81;39.00;93514.38;5093016;28;20036;-60
2022/06/08 07:06:53;;;;;;;3.97;1.58;;;;;;;25.14;39.04;93509.31;5092854;28;20040;-59
2022/06/08 07:09:21;;;;;;;5.68;1.90;;;;;;;26.23;37.42;93497.38;5093314;28;20040;-63
2022/06/08 07:11:50;;;;;;;3.97;1.60;;;;;;;24.42;39.10;93500.75;5078443;28;20038;-59
2022/06/08 07:14:18;;;;;;;4.10;1.88;;;;;;;25.59;37.46;93506.91;5092759;28;20052;-61
2022/06/08 07:16:47;;;;;;;4.43;1.70;;;;;;;24.41;39.02;93502.78;5090779;28;20048;-60
2022/06/08 07:19:14;;;;;;;5.60;1.67;;;;;;;25.56;36.40;93499.56;5089158;28;20532;-60
2022/06/08 07:21:41;;;;;;;4.65;1.77;;;;;;;24.16;39.89;93496.25;5092417;28;20497;-60
2022/06/08 07:24:22;;;;;;;4.70;1.85;;;;;;;24.70;39.52;93492.97;5092728;28;20055;-61
2022/06/08 07:26:50;;;;;;;4.45;1.88;;;;;;;24.70;38.83;93492.22;5092282;28;20052;-60
2022/06/08 07:29:17;;;;;;;4.23;1.67;;;;;;;25.03;36.72;93487.66;5093176;28;20044;-60
2022/06/08 07:31:44;;;;;;;4.43;1.70;;;;;;;24.87;38.35;93492.09;5091991;28;20113;-61
2022/06/08 07:34:13;;;;;;;4.75;1.80;;;;;;;27.18;33.61;93478.47;5092795;28;20422;-61
2022/06/08 07:36:44;;;;;;;3.22;1.73;;;;;;;25.24;36.69;93476.84;5092298;28;20075;-63
2022/06/08 07:39:13;;;;;;;4.15;1.60;;;;;;;23.36;40.01;93469.63;5091747;28;20032;-59
2022/06/08 07:41:39;;;;;;;5.77;1.67;;;;;;;21.76;43.77;93468.97;5092217;28;20390;-58
2022/06/08 07:44:06;;;;;;;3.83;1.63;;;;;;;21.02;45.53;93464.88;5092805;28;20536;-59
2022/06/08 07:46:33;;;;;;;4.35;1.70;;;;;;;20.21;47.25;93468.63;5092173;28;20416;-62
2022/06/08 07:51:52;;;;;;;5.47;1.77;;;;;;;19.62;48.33;93464.84;5092058;28;20051;-59
2022/06/08 07:54:24;;;;;;;5.33;1.90;;;;;;;20.49;48.10;93463.34;5092001;28;20052;-60
2022/06/08 07:56:53;;;;;;;4.95;2.00;;;;;;;21.20;46.54;93451.81;5091839;28;20112;-63
2022/06/08 07:59:22;;;;;;;5.25;1.98;;;;;;;22.14;42.57;93448.03;5060524;28;20070;-60
2022/06/08 08:01:49;;;;;;;3.35;1.67;;;;;;;22.74;40.65;93447.22;5091561;28;20039;-61
2022/06/08 08:04:16;;;;;;;4.25;1.63;;;;;;;22.51;41.57;93443.59;5091915;28;20116;-62
2022/06/08 08:06:43;;;;;;;5.03;1.70;;;;;;;23.02;41.36;93444.47;5078017;28;20059;-60
2022/06/08 08:09:17;;;;;;;5.28;1.60;;;;;;;22.77;41.24;93437.03;5082166;28;20048;-60
2022/06/08 08:11:46;;;;;;;3.63;1.40;;;;;;;23.29;39.13;93430.97;5078513;27;20471;-63
2022/06/08 08:14:13;;;;;;;4.35;1.80;;;;;;;22.24;40.54;93429.06;5071359;28;20048;-61
2022/06/08 08:16:42;;;;;;;3.67;1.65;;;;;;;23.01;40.35;93425.34;5085816;28;20409;-63
2022/06/08 08:19:17;;;;;;;3.93;1.53;;;;;;;23.49;40.17;93419.47;5069255;28;20040;-63
2022/06/08 08:21:45;;;;;;;4.55;1.60;;;;;;;23.15;41.01;93421.56;5086068;28;20067;-60
2022/06/08 08:24:12;;;;;;;4.28;1.60;;;;;;;23.07;40.31;93420.53;5068606;28;20052;-60
2022/06/08 08:26:39;;;;;;;4.05;1.50;;;;;;;23.87;40.11;93421.94;5086781;28;20058;-64
2022/06/08 08:29:06;;;;;;;5.28;1.48;;;;;;;26.00;35.52;93423.78;5087296;28;20050;-60
2022/06/08 08:31:33;;;;;;;5.47;1.80;;;;;;;25.00;36.22;93410.13;5086456;28;20036;-64
2022/06/08 08:34:00;;;;;;;3.70;1.50;;;;;;;24.38;37.44;93416.13;5086082;28;20039;-60
2022/06/08 08:36:27;;;;;;;3.28;1.50;;;;;;;24.21;37.65;93421.81;5087169;28;20044;-64
2022/06/08 08:38:54;;;;;;;3.42;1.30;;;;;;;22.96;40.01;93409.31;5085703;28;20074;-61
2022/06/08 08:44:34;;;;;;;3.37;1.40;;;;;;;24.65;38.46;93409.59;5086222;28;20413;-61
2022/06/08 08:47:23;;;;;;;3.22;1.30;;;;;;;26.33;33.08;93407.75;5085838;28;20044;-65
2022/06/08 08:50:18;;;;;;;4.18;1.30;;;;;;;25.93;33.83;93394.19;5085985;28;20156;-65
2022/06/08 08:53:13;;;;;;;4.20;1.40;;;;;;;26.19;34.13;93393.59;5085798;28;20044;-63
2022/06/08 08:55:48;;;;;;;4.38;1.30;;;;;;;26.34;33.38;93389.56;5086139;28;20047;-64
2022/06/08 08:58:18;;;;;;;3.73;1.30;;;;;;;28.25;29.94;93388.44;5086775;28;20059;-63
2022/06/08 09:01:01;;;;;;;3.58;1.30;;;;;;;26.30;31.69;93384.28;5085040;28;20040;-64
2022/06/08 09:03:39;;;;;;;3.70;1.30;;;;;;;27.42;30.08;93383.88;5086189;28;20044;-63
2022/06/08 09:06:12;;;;;;;3.00;1.27;;;;;;;27.64;29.77;93382.69;5085126;28;20755;-66
2022/06/08 09:08:43;;;;;;;2.75;1.10;;;;;;;27.34;31.13;93372.47;5085478;28;20047;-64
2022/06/08 09:11:22;;;;;;;3.20;1.43;;;;;;;27.95;30.84;93366.22;5085856;28;20153;-65
2022/06/08 09:14:09;;;;;;;2.65;1.20;;;;;;;27.96;28.96;93362.88;5079718;28;20073;-66
2022/06/08 09:16:48;;;;;;;3.88;1.33;;;;;;;27.16;32.04;93356.38;5068411;28;20050;-60
2022/06/08 09:19:21;;;;;;;3.22;1.38;;;;;;;25.69;33.61;93355.59;5084356;28;20202;-62
2022/06/08 09:21:50;;;;;;;3.10;1.30;;;;;;;24.87;32.87;93349.75;5085196;28;20048;-65
2022/06/08 09:24:28;;;;;;;4.10;1.30;;;;;;;25.74;33.35;93349.16;5101268;28;20066;-62
2022/06/08 09:27:22;;;;;;;3.50;1.30;;;;;;;25.89;31.76;93354.34;5079458;28;20054;-66
2022/06/08 09:30:09;;;;;;;3.38;1.40;;;;;;;27.42;29.16;93347.97;5085004;28;20071;-64
2022/06/08 09:32:45;;;;;;;2.85;1.00;;;;;;;28.70;26.71;93345.16;5085684;28;20059;-65
2022/06/08 09:35:17;;;;;;;3.10;1.30;;;;;;;29.49;25.42;93346.03;5084363;28;20567;-61
2022/06/08 09:37:44;;;;;;;4.00;1.10;;;;;;;28.95;26.35;93339.91;5084929;28;20054;-63
2022/06/08 09:40:36;;;;;;;4.07;1.15;;;;;;;28.19;26.90;93348.28;5101128;28;20040;-63
2022/06/08 09:43:23;;;;;;;3.80;1.30;;;;;;;27.37;28.39;93339.66;5084657;28;20688;-61
2022/06/08 09:46:04;;;;;;;2.97;1.20;;;;;;;27.15;28.54;93335.16;5084689;28;20040;-60
2022/06/08 09:51:27;;;;;;;2.87;1.00;;;;;;;29.25;24.75;93325.31;5084320;28;20616;-60
2022/06/08 09:54:21;;;;;;;4.03;1.13;;;;;;;26.65;25.62;93337.50;5084237;28;20040;-58
2022/06/08 09:57:02;;;;;;;3.33;1.10;;;;;;;27.24;25.57;93324.22;5083747;28;20112;-62
2022/06/08 09:59:57;;;;;;;3.22;1.02;;;;;;;28.12;25.69;93320.75;5085230;28;20048;-69
2022/06/08 10:02:28;;;;;;;3.45;1.25;;;;;;;29.35;26.53;93330.47;5072312;28;20710;-59
2022/06/08 10:05:03;;;;;;;3.53;1.30;;;;;;;29.91;24.84;93320.50;5082600;28;20066;-60
2022/06/08 10:07:51;;;;;;;3.30;1.17;;;;;;;28.29;26.29;93332.44;5066626;28;20157;-58
2022/06/08 10:10:29;;;;;;;4.05;1.08;;;;;;;27.55;27.12;93329.56;5083324;28;20648;-57
2022/06/08 10:13:00;;;;;;;3.15;1.30;;;;;;;27.39;26.64;93326.53;5084419;28;20056;-60
2022/06/08 10:15:45;;;;;;;3.63;1.20;;;;;;;23.62;31.37;93325.72;5085099;28;20058;-65
2022/06/08 10:18:28;;;;;;;3.27;1.20;;;;;;;25.00;31.34;93321.03;5084596;28;20807;-61
2022/06/08 10:21:03;;;;;;;3.80;1.48;;;;;;;25.66;29.56;93314.50;5083186;28;20069;-57
2022/06/08 10:23:34;;;;;;;2.63;1.13;;;;;;;26.11;28.63;93311.13;5084651;28;20052;-61
2022/06/08 10:26:37;;;;;;;2.92;1.10;;;;;;;27.56;25.67;93303.66;5084879;28;20053;-59
2022/06/08 10:29:43;;;;;;;3.10;1.10;;;;;;;26.29;28.17;93310.34;5082298;28;20649;-64
2022/06/08 10:32:35;;;;;;;3.50;1.00;;;;;;;25.49;30.08;93297.84;5083043;28;21913;-63
2022/06/08 10:35:20;;;;;;;3.45;1.35;;;;;;;25.66;30.18;93294.84;5084417;28;20050;-59
2022/06/08 10:37:47;;;;;;;3.30;1.30;;;;;;;25.44;31.88;93281.81;5084087;28;20086;-60
2022/06/08 10:40:20;;;;;;;3.13;1.38;;;;;;;26.84;28.50;93283.94;5067210;28;20044;-68
2022/06/08 10:42:49;;;;;;;3.53;1.20;;;;;;;26.51;28.91;93274.75;5084161;28;20052;-61
2022/06/08 10:45:26;;;;;;;3.53;1.40;;;;;;;25.67;29.71;93282.28;5100268;28;20497;-62
2022/06/08 10:47:54;;;;;;;3.50;1.60;;;;;;;23.45;33.62;93286.59;5066562;28;20040;-58
2022/06/08 10:50:37;;;;;;;4.00;1.30;;;;;;;23.78;32.56;93285.69;5084747;28;20052;-59
2022/06/08 10:56:48;;;;;;;3.88;1.40;;;;;;;21.51;35.17;93281.50;5084214;28;20473;-62
2022/06/08 10:59:24;;;;;;;3.40;1.30;;;;;;;21.04;36.93;93269.84;5084107;28;21549;-65
2022/06/08 11:01:57;;;;;;;4.50;1.45;;;;;;;22.05;37.39;93277.81;5084500;28;20047;-63
2022/06/08 11:04:39;;;;;;;4.15;1.75;;;;;;;22.39;38.24;93285.50;5084453;28;20561;-61
2022/06/08 11:07:11;;;;;;;4.68;1.80;;;;;;;22.69;37.18;93275.28;5083330;28;20387;-64
2022/06/08 11:09:39;;;;;;;4.00;1.90;;;;;;;23.24;36.60;93266.56;5084232;28;20120;-64
2022/06/08 11:12:12;;;;;;;4.57;1.67;;;;;;;23.24;36.59;93275.72;5084860;28;20446;-64
2022/06/08 11:14:48;;;;;;;3.75;1.90;;;;;;;23.35;36.80;93274.16;5086809;28;20059;-57
2022/06/08 11:17:35;;;;;;;4.63;1.80;;;;;;;23.25;35.97;93260.44;5088538;28;20095;-58
2022/06/08 11:20:13;;;;;;;4.80;1.50;;;;;;;23.01;36.52;93265.84;5087339;28;20044;-62
2022/06/08 11:22:50;;;;;;;4.10;1.77;;;;;;;22.48;36.88;93258.03;5087407;28;20052;-59
2022/06/08 11:25:23;;;;;;;3.70;1.60;;;;;;;21.83;37.24;93261.03;5070272;28;20490;-58
2022/06/08 11:28:22;;;;;;;4.28;1.80;;;;;;;22.64;37.09;93264.16;5087713;28;20054;-59
2022/06/08 11:30:52;;;;;;;3.53;1.88;;;;;;;22.36;38.25;93258.56;5087565;28;20063;-62
2022/06/08 11:33:20;;;;;;;3.53;1.60;;;;;;;21.67;37.46;93257.69;5087818;28;20060;-68
2022/06/08 11:36:21;;;;;;;5.32;1.83;;;;;;;21.98;37.87;93255.22;5083184;28;20048;-72
2022/06/08 11:39:25;;;;;;;3.93;1.90;;;;;;;22.12;38.09;93252.16;5087964;28;20048;-66
2022/06/08 11:42:22;;;;;;;4.57;1.55;;;;;;;22.64;36.79;93248.13;5064863;28;20060;-60
2022/06/08 11:45:18;;;;;;;3.85;1.63;;;;;;;23.13;37.00;93239.38;5076136;28;20536;-60
2022/06/08 11:48:13;;;;;;;4.05;1.75;;;;;;;22.99;36.61;93240.41;5083702;28;20047;-63
2022/06/08 11:50:50;;;;;;;5.75;2.10;;;;;;;23.35;37.09;93246.91;5086580;28;20120;-60
2022/06/08 11:53:27;;;;;;;4.03;1.93;;;;;;;22.84;37.91;93240.69;5087733;28;20413;-58
2022/06/08 11:56:33;;;;;;;6.78;1.90;;;;;;;22.78;38.05;93242.72;5087415;28;20052;-56
2022/06/08 11:59:01;;;;;;;3.45;1.80;;;;;;;22.24;38.90;93247.38;5086005;28;20052;-58
2022/06/08 12:01:42;;;;;;;6.63;1.70;;;;;;;22.61;37.66;93237.19;5087672;28;20051;-61
2022/06/08 12:04:16;;;;;;;4.63;1.90;;;;;;;22.10;38.26;93239.97;5086165;28;20603;-69
2022/06/08 12:06:44;;;;;;;4.97;1.73;;;;;;;22.90;37.41;93247.06;5101872;28;20043;-63
2022/06/08 12:09:15;;;;;;;4.18;1.52;;;;;;;23.08;36.43;93240.13;5069395;28;20047;-63
2022/06/08 12:11:46;;;;;;;3.50;1.73;;;;;;;23.67;35.55;93244.47;5081399;28;20358;-57